Time,TemperatureF,DewpointF,PressureIn,WindDirection,WindDirectionDegrees,WindSpeedMPH,WindSpeedGustMPH,Humidity,HourlyPrecipIn,Conditions,Clouds,dailyrainin,SoftwareType,DateUTC
2013-07-24 00:01:00,62.4,57.8,29.67,WNW,288,2.0,3.0,85,0.00,RA,,0.00,WeatherDisplay:10.37,2013-07-24 04:01:00,
2013-07-24 00:06:00,62.5,57.9,29.68,West,277,3.2,4.6,85,0.00,RA,,0.00,WeatherDisplay:10.37,2013-07-24 04:06:00,
2013-07-24 00:11:00,62.5,57.6,29.68,WSW,257,1.3,5.8,84,0.00,OVC,,0.00,WeatherDisplay:10.37,2013-07-24 04:11:00,
2013-07-24 00:16:00,62.5,57.6,29.68,West,261,0.0,3.5,84,0.00,OVC,,0.00,WeatherDisplay:10.37,2013-07-24 04:16:00,
2013-07-24 00:21:00,62.5,57.6,29.68,WSW,257,3.5,3.5,84,0.00,OVC,,0.00,WeatherDisplay:10.37,2013-07-24 04:21:00,
2013-07-24 00:26:00,62.6,57.7,29.68,West,261,0.5,3.5,84,0.00,OVC,,0.00,WeatherDisplay:10.37,2013-07-24 04:26:00,
2013-07-24 00:31:00,62.5,57.6,29.68,West,267,3.2,3.5,84,0.00,OVC,,0.00,WeatherDisplay:10.37,2013-07-24 04:31:00,
2013-07-24 00:36:00,62.5,57.6,29.69,West,267,0.0,3.5,84,0.00,OVC,,0.00,WeatherDisplay:10.37,2013-07-24 04:36:00,
2013-07-24 00:42:00,62.4,57.5,29.69,West,267,1.9,3.0,84,0.00,OVC,,0.00,WeatherDisplay:10.37,2013-07-24 04:42:00,
2013-07-24 00:47:00,62.3,57.7,29.69,West,264,0.0,0.0,85,0.00,OVC,,0.00,WeatherDisplay:10.37,2013-07-24 04:47:00,
2013-07-24 00:52:00,62.2,57.3,29.69,West,263,3.8,4.6,84,0.00,OVC,,0.00,WeatherDisplay:10.37,2013-07-24 04:52:00,
2013-07-24 00:57:00,62.1,57.2,29.69,West,264,0.9,4.6,84,0.00,OVC,,0.00,WeatherDisplay:10.37,2013-07-24 04:57:00,
2013-07-24 01:01:00,61.9,57.0,29.69,West,263,0.9,2.3,84,0.00,OVC,,0.00,WeatherDisplay:10.37,2013-07-24 05:01:00,
2013-07-24 01:07:00,61.8,56.9,29.69,West,263,0.4,3.5,84,0.00,SCT,,0.00,WeatherDisplay:10.37,2013-07-24 05:07:00,
2013-07-24 01:12:00,61.7,57.1,29.69,West,263,0.5,2.3,85,0.00,SCT,,0.00,WeatherDisplay:10.37,2013-07-24 05:12:00,
2013-07-24 01:17:00,61.5,56.9,29.69,West,265,3.9,5.8,85,0.00,SCT,,0.00,WeatherDisplay:10.37,2013-07-24 05:17:00,
2013-07-24 01:22:00,61.3,56.8,29.69,West,275,0.6,3.5,85,0.00,SCT,,0.00,WeatherDisplay:10.37,2013-07-24 05:22:00,
2013-07-24 01:27:00,61.2,57.0,29.69,West,273,0.7,3.5,86,0.00,SCT,,0.00,WeatherDisplay:10.37,2013-07-24 05:27:00,
2013-07-24 01:32:00,61.0,56.8,29.69,West,273,3.5,5.8,86,0.00,SCT,,0.00,WeatherDisplay:10.37,2013-07-24 05:32:00,
2013-07-24 01:37:00,60.8,56.9,29.69,West,269,2.8,5.8,87,0.00,SCT,,0.00,WeatherDisplay:10.37,2013-07-24 05:37:00,
2013-07-24 01:42:00,60.7,56.8,29.69,WNW,284,3.2,4.6,87,0.00,SCT,,0.00,WeatherDisplay:10.37,2013-07-24 05:42:00,
2013-07-24 01:47:00,60.7,56.8,29.69,West,261,3.5,4.6,87,0.00,SCT,,0.00,WeatherDisplay:10.37,2013-07-24 05:47:00,
2013-07-24 01:52:00,60.7,56.8,29.70,West,278,3.4,5.8,87,0.00,SCT,,0.00,WeatherDisplay:10.37,2013-07-24 05:52:00,
2013-07-24 01:57:00,60.7,56.8,29.70,West,280,3.3,4.6,87,0.00,SCT,,0.00,WeatherDisplay:10.37,2013-07-24 05:57:00,
2013-07-24 02:02:00,60.7,57.1,29.70,WNW,284,2.8,4.6,88,0.00,SCT,,0.00,WeatherDisplay:10.37,2013-07-24 06:02:00,
2013-07-24 02:07:00,60.7,57.1,29.70,West,275,1.6,3.5,88,0.00,SCT,,0.00,WeatherDisplay:10.37,2013-07-24 06:07:00,
2013-07-24 02:12:00,60.7,57.1,29.70,WSW,244,1.6,4.6,88,0.00,BKN,,0.00,WeatherDisplay:10.37,2013-07-24 06:12:00,
2013-07-24 02:17:00,60.7,57.1,29.71,WSW,247,1.6,4.6,88,0.00,BKN,,0.00,WeatherDisplay:10.37,2013-07-24 06:17:00,
2013-07-24 02:22:00,60.8,57.2,29.71,WSW,246,0.5,3.5,88,0.00,BKN,,0.00,WeatherDisplay:10.37,2013-07-24 06:22:00,
2013-07-24 02:27:00,60.8,57.2,29.71,WSW,245,2.0,3.5,88,0.00,BKN,,0.00,WeatherDisplay:10.37,2013-07-24 06:27:00,
2013-07-24 02:32:00,60.9,57.6,29.71,WSW,254,1.9,3.5,89,0.00,BKN,,0.00,WeatherDisplay:10.37,2013-07-24 06:32:00,
2013-07-24 02:37:00,61.0,57.7,29.71,WSW,254,0.0,0.0,89,0.00,BKN,,0.00,WeatherDisplay:10.37,2013-07-24 06:37:00,
2013-07-24 02:42:00,61.2,57.9,29.71,WSW,250,0.6,4.6,89,0.00,BKN,,0.00,WeatherDisplay:10.37,2013-07-24 06:42:00,
2013-07-24 02:47:00,61.2,57.9,29.71,WSW,246,1.6,3.5,89,0.00,BKN,,0.00,WeatherDisplay:10.37,2013-07-24 06:47:00,
2013-07-24 02:52:00,61.3,57.7,29.72,WSW,251,4.3,8.1,88,0.00,BKN,,0.00,WeatherDisplay:10.37,2013-07-24 06:52:00,
2013-07-24 02:57:00,61.4,57.8,29.72,WSW,254,2.3,4.6,88,0.00,BKN,,0.00,WeatherDisplay:10.37,2013-07-24 06:57:00,
2013-07-24 03:02:00,61.6,58.0,29.72,WSW,254,0.9,5.8,88,0.00,OVC,,0.00,WeatherDisplay:10.37,2013-07-24 07:02:00,
2013-07-24 03:07:00,61.6,58.0,29.72,West,261,3.5,5.8,88,0.00,OVC,,0.00,WeatherDisplay:10.37,2013-07-24 07:07:00,
2013-07-24 03:12:00,61.7,57.8,29.72,West,264,0.5,2.3,87,0.00,OVC,,0.00,WeatherDisplay:10.37,2013-07-24 07:12:00,
2013-07-24 03:17:00,61.7,57.8,29.72,West,264,2.5,4.6,87,0.00,OVC,,0.00,WeatherDisplay:10.37,2013-07-24 07:17:00,
2013-07-24 03:22:00,61.8,57.9,29.73,West,259,3.0,3.5,87,0.00,OVC,,0.00,WeatherDisplay:10.37,2013-07-24 07:22:00,
2013-07-24 03:27:00,61.8,57.6,29.73,West,266,6.5,8.1,86,0.00,OVC,,0.00,WeatherDisplay:10.37,2013-07-24 07:27:00,
2013-07-24 03:32:00,61.8,57.2,29.73,WNW,297,5.7,9.2,85,0.00,OVC,,0.00,WeatherDisplay:10.37,2013-07-24 07:32:00,
2013-07-24 03:37:00,61.8,56.9,29.73,WNW,286,4.2,8.1,84,0.00,OVC,,0.00,WeatherDisplay:10.37,2013-07-24 07:37:00,
2013-07-24 03:42:00,61.7,56.5,29.73,West,270,5.6,9.2,83,0.00,OVC,,0.00,WeatherDisplay:10.37,2013-07-24 07:42:00,
2013-07-24 03:47:00,61.6,56.0,29.73,West,263,5.4,10.4,82,0.00,OVC,,0.00,WeatherDisplay:10.37,2013-07-24 07:47:00,
2013-07-24 03:52:00,61.6,56.0,29.73,WNW,286,5.8,8.1,82,0.00,OVC,,0.00,WeatherDisplay:10.37,2013-07-24 07:52:00,
2013-07-24 03:57:00,61.5,56.0,29.73,WNW,286,6.3,10.4,82,0.00,OVC,,0.00,WeatherDisplay:10.37,2013-07-24 07:57:00,
2013-07-24 04:02:00,61.4,55.5,29.74,WNW,292,5.9,9.2,81,0.00,OVC,,0.00,WeatherDisplay:10.37,2013-07-24 08:02:00,
2013-07-24 04:07:00,61.3,55.4,29.74,WNW,291,2.9,5.8,81,0.00,OVC,,0.00,WeatherDisplay:10.37,2013-07-24 08:07:00,
2013-07-24 04:12:00,61.2,55.0,29.74,WNW,301,3.0,6.9,80,0.00,OVC,,0.00,WeatherDisplay:10.37,2013-07-24 08:12:00,
2013-07-24 04:17:00,61.2,55.3,29.74,WNW,286,3.1,5.8,81,0.00,OVC,,0.00,WeatherDisplay:10.37,2013-07-24 08:17:00,
2013-07-24 04:22:00,61.1,55.2,29.74,WNW,303,4.2,8.1,81,0.00,OVC,,0.00,WeatherDisplay:10.37,2013-07-24 08:22:00,
2013-07-24 04:27:00,60.9,54.7,29.74,WNW,300,6.7,10.4,80,0.00,OVC,,0.00,WeatherDisplay:10.37,2013-07-24 08:27:00,
2013-07-24 04:32:00,60.7,54.1,29.74,WNW,287,4.6,11.5,79,0.00,OVC,,0.00,WeatherDisplay:10.37,2013-07-24 08:32:00,
2013-07-24 04:38:00,60.5,54.0,29.74,WNW,293,5.5,11.5,79,0.00,OVC,,0.00,WeatherDisplay:10.37,2013-07-24 08:38:00,
2013-07-24 04:42:00,60.4,53.9,29.75,NW,304,5.7,11.5,79,0.00,OVC,,0.00,WeatherDisplay:10.37,2013-07-24 08:42:00,
2013-07-24 04:48:00,60.2,53.3,29.75,WNW,294,7.7,10.4,78,0.00,OVC,,0.00,WeatherDisplay:10.37,2013-07-24 08:48:00,
2013-07-24 04:53:00,60.2,53.3,29.75,WNW,301,5.1,11.5,78,0.00,OVC,,0.00,WeatherDisplay:10.37,2013-07-24 08:53:00,
2013-07-24 04:58:00,60.1,53.2,29.75,WNW,289,4.0,8.1,78,0.00,OVC,,0.00,WeatherDisplay:10.37,2013-07-24 08:58:00,
2013-07-24 05:03:00,60.0,53.1,29.75,WNW,302,6.4,9.2,78,0.00,OVC,,0.00,WeatherDisplay:10.37,2013-07-24 09:03:00,
2013-07-24 05:08:00,59.8,53.3,29.75,WNW,290,3.2,8.1,79,0.00,OVC,,0.00,WeatherDisplay:10.37,2013-07-24 09:08:00,
2013-07-24 05:13:00,59.7,52.8,29.75,WNW,284,5.1,11.5,78,0.00,OVC,,0.00,WeatherDisplay:10.37,2013-07-24 09:13:00,
2013-07-24 05:18:00,59.6,52.7,29.76,WNW,288,7.0,9.2,78,0.00,OVC,,0.00,WeatherDisplay:10.37,2013-07-24 09:18:00,
2013-07-24 05:23:00,59.6,53.1,29.76,West,281,5.7,8.1,79,0.00,OVC,,0.00,WeatherDisplay:10.37,2013-07-24 09:23:00,
2013-07-24 05:28:00,59.4,52.9,29.76,West,273,4.8,8.1,79,0.00,OVC,,0.00,WeatherDisplay:10.37,2013-07-24 09:28:00,
2013-07-24 05:33:00,59.3,52.8,29.76,NW,309,5.7,10.4,79,0.00,OVC,,0.00,WeatherDisplay:10.37,2013-07-24 09:33:00,
2013-07-24 05:38:00,59.2,52.7,29.77,WNW,286,6.9,9.2,79,0.00,OVC,,0.00,WeatherDisplay:10.37,2013-07-24 09:38:00,
2013-07-24 05:44:00,59.0,52.5,29.77,WNW,298,3.1,5.8,79,0.00,OVC,,0.00,WeatherDisplay:10.37,2013-07-24 09:44:00,
2013-07-24 05:49:00,59.0,52.5,29.77,WNW,288,3.0,10.4,79,0.00,OVC,,0.00,WeatherDisplay:10.37,2013-07-24 09:49:00,
2013-07-24 05:54:00,59.0,52.5,29.77,NNW,331,8.6,11.5,79,0.00,OVC,,0.00,WeatherDisplay:10.37,2013-07-24 09:54:00,
2013-07-24 05:59:00,59.0,52.1,29.78,WNW,284,6.5,11.5,78,0.00,OVC,,0.00,WeatherDisplay:10.37,2013-07-24 09:59:00,
2013-07-24 06:04:00,59.0,51.8,29.78,West,280,4.4,11.5,77,0.00,OVC,,0.00,WeatherDisplay:10.37,2013-07-24 10:04:00,
2013-07-24 06:09:00,58.6,51.4,29.78,WNW,293,7.1,8.1,77,0.00,OVC,,0.00,WeatherDisplay:10.37,2013-07-24 10:09:00,
2013-07-24 06:14:00,58.5,51.0,29.78,WNW,295,7.2,11.5,76,0.00,OVC,,0.00,WeatherDisplay:10.37,2013-07-24 10:14:00,
2013-07-24 06:19:00,58.3,51.1,29.78,WNW,302,6.5,11.5,77,0.00,OVC,,0.00,WeatherDisplay:10.37,2013-07-24 10:19:00,
2013-07-24 06:24:00,58.2,51.0,29.79,WNW,290,6.1,8.1,77,0.00,OVC,,0.00,WeatherDisplay:10.37,2013-07-24 10:24:00,
2013-07-24 06:29:00,58.2,51.0,29.79,NW,317,3.7,8.1,77,0.00,OVC,,0.00,WeatherDisplay:10.37,2013-07-24 10:29:00,
2013-07-24 06:34:00,58.1,51.3,29.79,NW,319,4.1,8.1,78,0.00,OVC,,0.00,WeatherDisplay:10.37,2013-07-24 10:34:00,
2013-07-24 06:39:00,58.1,51.3,29.79,NNW,327,2.9,4.6,78,0.00,OVC,,0.00,WeatherDisplay:10.37,2013-07-24 10:39:00,
2013-07-24 06:44:00,58.0,51.5,29.79,NNW,339,4.0,5.8,79,0.00,OVC,,0.00,WeatherDisplay:10.37,2013-07-24 10:44:00,
2013-07-24 06:49:00,57.9,51.1,29.80,NW,312,6.0,8.0,78,0.00,OVC,,0.00,WeatherDisplay:10.37,2013-07-24 10:49:00,
2013-07-24 06:54:00,57.9,51.4,29.80,NW,306,4.7,5.0,79,0.00,OVC,,0.00,WeatherDisplay:10.37,2013-07-24 10:54:00,
2013-07-24 06:59:00,57.8,51.0,29.80,WNW,300,3.5,6.9,78,0.00,OVC,,0.00,WeatherDisplay:10.37,2013-07-24 10:59:00,
2013-07-24 07:04:00,57.8,51.3,29.80,NNW,334,3.6,5.8,79,0.00,OVC,,0.00,WeatherDisplay:10.37,2013-07-24 11:04:00,
2013-07-24 07:09:00,57.8,51.0,29.80,NNW,327,2.7,6.9,78,0.00,OVC,,0.00,WeatherDisplay:10.37,2013-07-24 11:09:00,
2013-07-24 07:14:00,57.7,51.2,29.81,NNW,332,4.6,5.8,79,0.00,BKN,,0.00,WeatherDisplay:10.37,2013-07-24 11:14:00,
2013-07-24 07:19:00,57.8,51.3,29.81,NW,320,1.3,5.0,79,0.00,BKN,,0.00,WeatherDisplay:10.37,2013-07-24 11:19:00,
2013-07-24 07:24:00,57.7,51.2,29.81,NW,319,5.3,10.4,79,0.00,BKN,,0.00,WeatherDisplay:10.37,2013-07-24 11:24:00,
2013-07-24 07:29:00,57.7,50.9,29.81,NNW,340,5.0,9.2,78,0.00,BKN,,0.00,WeatherDisplay:10.37,2013-07-24 11:29:00,
2013-07-24 07:34:00,57.7,51.2,29.81,WNW,300,2.0,3.5,79,0.00,BKN,,0.00,WeatherDisplay:10.37,2013-07-24 11:34:00,
2013-07-24 07:39:00,57.6,50.8,29.81,NW,325,4.5,9.2,78,0.00,BKN,,0.00,WeatherDisplay:10.37,2013-07-24 11:39:00,
2013-07-24 07:44:00,57.7,51.2,29.82,NW,322,2.1,4.6,79,0.00,BKN,,0.00,WeatherDisplay:10.37,2013-07-24 11:44:00,
2013-07-24 07:49:00,57.6,50.8,29.82,NW,323,2.9,6.9,78,0.00,BKN,,0.00,WeatherDisplay:10.37,2013-07-24 11:49:00,
2013-07-24 07:54:00,57.7,51.2,29.82,NW,305,7.8,11.5,79,0.00,BKN,,0.00,WeatherDisplay:10.37,2013-07-24 11:54:00,
2013-07-24 07:59:00,57.7,51.2,29.82,NW,311,3.9,6.9,79,0.00,BKN,,0.00,WeatherDisplay:10.37,2013-07-24 11:59:00,
2013-07-24 08:04:00,57.8,51.3,29.83,NNW,329,2.6,4.6,79,0.00,BKN,,0.00,WeatherDisplay:10.37,2013-07-24 12:04:00,
2013-07-24 08:09:00,57.8,51.0,29.83,WNW,299,5.3,8.1,78,0.00,BKN,,0.00,WeatherDisplay:10.37,2013-07-24 12:09:00,
2013-07-24 08:14:00,57.9,51.4,29.83,NW,326,5.2,5.8,79,0.00,BKN,,0.00,WeatherDisplay:10.37,2013-07-24 12:14:00,
2013-07-24 08:19:00,58.0,51.5,29.83,NNW,340,1.1,4.6,79,0.00,BKN,,0.00,WeatherDisplay:10.37,2013-07-24 12:19:00,
2013-07-24 08:24:00,58.3,51.8,29.84,WNW,298,3.7,3.7,79,0.00,BKN,,0.00,WeatherDisplay:10.37,2013-07-24 12:24:00,
2013-07-24 08:30:00,58.4,51.6,29.84,North,360,3.1,8.1,78,0.00,BKN,,0.00,WeatherDisplay:10.37,2013-07-24 12:30:00,
2013-07-24 08:35:00,58.4,51.6,29.84,West,281,4.8,9.2,78,0.00,BKN,,0.00,WeatherDisplay:10.37,2013-07-24 12:35:00,
2013-07-24 08:40:00,58.4,51.2,29.84,NNW,336,5.2,6.9,77,0.00,BKN,,0.00,WeatherDisplay:10.37,2013-07-24 12:40:00,
2013-07-24 08:45:00,58.4,51.6,29.84,NNW,340,2.1,5.8,78,0.00,BKN,,0.00,WeatherDisplay:10.37,2013-07-24 12:45:00,
2013-07-24 08:50:00,58.4,51.2,29.84,NNW,336,3.3,5.8,77,0.00,BKN,,0.00,WeatherDisplay:10.37,2013-07-24 12:50:00,
2013-07-24 08:55:00,58.4,51.2,29.84,NW,322,4.9,10.4,77,0.00,BKN,,0.00,WeatherDisplay:10.37,2013-07-24 12:55:00,
2013-07-24 09:00:00,58.6,51.8,29.84,NNW,329,2.6,3.5,78,0.00,BKN,,0.00,WeatherDisplay:10.37,2013-07-24 13:00:00,
2013-07-24 09:05:00,58.8,52.0,29.85,NNW,342,1.7,6.9,78,0.00,BKN,,0.00,WeatherDisplay:10.37,2013-07-24 13:05:00,
2013-07-24 09:10:00,59.0,52.1,29.85,West,274,2.5,9.2,78,0.00,BKN,,0.00,WeatherDisplay:10.37,2013-07-24 13:10:00,
2013-07-24 09:15:00,59.0,51.8,29.85,NNW,338,3.4,6.0,77,0.00,BKN,,0.00,WeatherDisplay:10.37,2013-07-24 13:15:00,
2013-07-24 09:20:00,59.0,51.4,29.86,NW,313,4.5,11.5,76,0.00,BKN,,0.00,WeatherDisplay:10.37,2013-07-24 13:20:00,
2013-07-24 09:25:00,59.0,51.4,29.86,NW,321,4.1,10.4,76,0.00,BKN,,0.00,WeatherDisplay:10.37,2013-07-24 13:25:00,
2013-07-24 09:30:00,58.7,51.2,29.86,NNW,331,5.9,11.5,76,0.00,BKN,,0.00,WeatherDisplay:10.37,2013-07-24 13:30:00,
2013-07-24 09:35:00,58.6,51.1,29.86,WNW,292,4.5,6.9,76,0.00,BKN,,0.00,WeatherDisplay:10.37,2013-07-24 13:35:00,
2013-07-24 09:40:00,58.6,51.1,29.86,WNW,296,4.2,7.0,76,0.00,BKN,,0.00,WeatherDisplay:10.37,2013-07-24 13:40:00,
2013-07-24 09:45:00,58.6,51.1,29.87,NNW,346,4.1,10.4,76,0.00,BKN,,0.00,WeatherDisplay:10.37,2013-07-24 13:45:00,
2013-07-24 09:50:00,58.6,51.1,29.87,NNW,340,3.5,8.1,76,0.00,BKN,,0.00,WeatherDisplay:10.37,2013-07-24 13:50:00,
2013-07-24 09:55:00,58.7,51.2,29.88,NNW,346,3.2,10.4,76,0.00,BKN,,0.00,WeatherDisplay:10.37,2013-07-24 13:55:00,
2013-07-24 10:00:00,58.8,51.2,29.88,NW,311,5.3,8.1,76,0.00,BKN,,0.00,WeatherDisplay:10.37,2013-07-24 14:00:00,
2013-07-24 10:05:00,58.8,51.2,29.88,North,360,5.8,10.4,76,0.00,BKN,,0.00,WeatherDisplay:10.37,2013-07-24 14:05:00,
2013-07-24 10:10:00,58.9,51.7,29.88,North,355,2.1,5.8,77,0.00,BKN,,0.00,WeatherDisplay:10.37,2013-07-24 14:10:00,
2013-07-24 10:15:00,59.0,52.1,29.88,NW,314,4.2,8.1,78,0.00,BKN,,0.00,WeatherDisplay:10.37,2013-07-24 14:15:00,
2013-07-24 10:20:00,59.0,51.4,29.88,NNW,327,2.6,6.9,76,0.00,BKN,,0.00,WeatherDisplay:10.37,2013-07-24 14:20:00,
2013-07-24 10:25:00,59.3,52.1,29.89,NNW,338,2.7,6.9,77,0.00,BKN,,0.00,WeatherDisplay:10.37,2013-07-24 14:25:00,
2013-07-24 10:30:00,59.4,51.1,29.89,NNW,331,5.4,9.2,74,0.00,BKN,,0.00,WeatherDisplay:10.37,2013-07-24 14:30:00,
2013-07-24 10:35:00,59.1,50.5,29.89,WNW,295,4.7,9.2,73,0.00,BKN,,0.00,WeatherDisplay:10.37,2013-07-24 14:35:00,
2013-07-24 10:40:00,59.4,51.8,29.89,NNE,22,2.2,6.9,76,0.00,BKN,,0.00,WeatherDisplay:10.37,2013-07-24 14:40:00,
2013-07-24 10:45:00,59.5,50.8,29.89,NNW,331,3.6,6.9,73,0.00,BKN,,0.00,WeatherDisplay:10.37,2013-07-24 14:45:00,
2013-07-24 10:50:00,59.5,51.2,29.89,NW,325,5.1,9.2,74,0.00,BKN,,0.00,WeatherDisplay:10.37,2013-07-24 14:50:00,
2013-07-24 10:55:00,59.3,51.0,29.90,NNW,341,5.5,13.8,74,0.00,BKN,,0.00,WeatherDisplay:10.37,2013-07-24 14:55:00,
2013-07-24 11:00:00,59.1,50.8,29.90,West,273,5.1,6.9,74,0.00,BKN,,0.00,WeatherDisplay:10.37,2013-07-24 15:00:00,
2013-07-24 11:05:00,59.3,51.4,29.90,NNW,333,5.5,11.5,75,0.00,BKN,,0.00,WeatherDisplay:10.37,2013-07-24 15:05:00,
2013-07-24 11:10:00,59.8,51.1,29.90,NNW,334,4.4,10.4,73,0.00,BKN,,0.00,WeatherDisplay:10.37,2013-07-24 15:10:00,
2013-07-24 11:15:00,60.0,51.3,29.90,North,5,4.7,6.9,73,0.00,BKN,,0.00,WeatherDisplay:10.37,2013-07-24 15:15:00,
2013-07-24 11:20:00,60.1,51.4,29.90,NNW,346,5.4,8.1,73,0.00,BKN,,0.00,WeatherDisplay:10.37,2013-07-24 15:20:00,
2013-07-24 11:25:00,60.1,51.4,29.91,NNW,336,4.1,4.6,73,0.00,BKN,,0.00,WeatherDisplay:10.37,2013-07-24 15:25:00,
2013-07-24 11:30:00,60.1,51.0,29.90,WNW,290,2.9,5.8,72,0.00,BKN,,0.00,WeatherDisplay:10.37,2013-07-24 15:30:00,
2013-07-24 11:35:00,60.4,51.3,29.91,NNW,336,3.9,9.2,72,0.00,BKN,,0.00,WeatherDisplay:10.37,2013-07-24 15:35:00,
2013-07-24 11:40:00,60.5,51.4,29.91,NNW,348,5.3,11.5,72,0.00,BKN,,0.00,WeatherDisplay:10.37,2013-07-24 15:40:00,
2013-07-24 11:45:00,60.3,50.9,29.92,NE,45,3.2,6.9,71,0.00,BKN,,0.00,WeatherDisplay:10.37,2013-07-24 15:45:00,
2013-07-24 11:50:00,60.4,51.0,29.92,NNW,338,4.0,6.9,71,0.00,BKN,,0.00,WeatherDisplay:10.37,2013-07-24 15:50:00,
2013-07-24 11:56:00,61.0,50.4,29.92,North,5,5.7,8.1,68,0.00,BKN,,0.00,WeatherDisplay:10.37,2013-07-24 15:56:00,
2013-07-24 12:01:00,61.4,51.5,29.92,NNE,32,2.6,5.8,70,0.00,BKN,,0.00,WeatherDisplay:10.37,2013-07-24 16:01:00,
2013-07-24 12:06:00,61.7,50.2,29.92,NNE,24,7.0,11.5,66,0.00,BKN,,0.00,WeatherDisplay:10.37,2013-07-24 16:06:00,
2013-07-24 12:11:00,61.8,51.1,29.92,NW,318,5.6,12.7,68,0.00,BKN,,0.00,WeatherDisplay:10.37,2013-07-24 16:11:00,
2013-07-24 12:16:00,62.0,51.3,29.92,NNW,336,4.8,8.1,68,0.00,BKN,,0.00,WeatherDisplay:10.37,2013-07-24 16:16:00,
2013-07-24 12:21:00,62.2,51.1,29.92,North,5,4.7,9.2,67,0.00,BKN,,0.00,WeatherDisplay:10.37,2013-07-24 16:21:00,
2013-07-24 12:26:00,62.3,50.4,29.92,North,360,5.8,10.4,65,0.00,BKN,,0.00,WeatherDisplay:10.37,2013-07-24 16:26:00,
2013-07-24 12:31:00,61.9,50.4,29.92,NE,35,3.8,8.1,66,0.00,BKN,,0.00,WeatherDisplay:10.37,2013-07-24 16:31:00,
2013-07-24 12:36:00,61.4,49.9,29.92,NNW,342,3.5,5.8,66,0.00,BKN,,0.00,WeatherDisplay:10.37,2013-07-24 16:36:00,
2013-07-24 12:41:00,61.7,51.0,29.92,NW,319,5.4,12.0,68,0.00,BKN,,0.00,WeatherDisplay:10.37,2013-07-24 16:41:00,
2013-07-24 12:46:00,61.7,50.6,29.92,NE,46,5.9,8.1,67,0.00,BKN,,0.00,WeatherDisplay:10.37,2013-07-24 16:46:00,
2013-07-24 12:51:00,61.9,50.8,29.92,NNE,25,4.6,9.2,67,0.00,BKN,,0.00,WeatherDisplay:10.37,2013-07-24 16:51:00,
2013-07-24 12:56:00,61.8,49.5,29.92,North,5,4.6,8.1,64,0.00,BKN,,0.00,WeatherDisplay:10.37,2013-07-24 16:56:00,
2013-07-24 13:01:00,62.1,51.4,29.93,NNW,338,4.9,9.2,68,0.00,BKN,,0.00,WeatherDisplay:10.37,2013-07-24 17:01:00,
2013-07-24 13:06:00,62.4,50.9,29.92,NNW,327,4.0,6.9,66,0.00,BKN,,0.00,WeatherDisplay:10.37,2013-07-24 17:06:00,
2013-07-24 13:11:00,62.7,51.2,29.92,NNW,336,6.0,7.0,66,0.00,BKN,,0.00,WeatherDisplay:10.37,2013-07-24 17:11:00,
2013-07-24 13:16:00,62.9,51.4,29.92,NW,325,5.8,9.2,66,0.00,BKN,,0.00,WeatherDisplay:10.37,2013-07-24 17:16:00,
2013-07-24 13:21:00,62.8,51.3,29.93,North,349,6.0,8.0,66,0.00,BKN,,0.00,WeatherDisplay:10.37,2013-07-24 17:21:00,
2013-07-24 13:26:00,62.9,51.0,29.92,North,350,6.4,10.4,65,0.00,BKN,,0.00,WeatherDisplay:10.37,2013-07-24 17:26:00,
2013-07-24 13:31:00,62.7,50.8,29.93,NNW,340,3.0,4.0,65,0.00,BKN,,0.00,WeatherDisplay:10.37,2013-07-24 17:31:00,
2013-07-24 13:36:00,63.0,51.9,29.93,WNW,292,2.3,8.1,67,0.00,BKN,,0.00,WeatherDisplay:10.37,2013-07-24 17:36:00,
2013-07-24 13:41:00,63.0,51.9,29.93,NNW,340,3.0,7.0,67,0.00,BKN,,0.00,WeatherDisplay:10.37,2013-07-24 17:41:00,
2013-07-24 13:46:00,63.1,51.1,29.93,NW,304,4.4,9.2,65,0.00,BKN,,0.00,WeatherDisplay:10.37,2013-07-24 17:46:00,
2013-07-24 13:51:00,62.7,50.8,29.93,NW,323,2.3,5.8,65,0.00,BKN,,0.00,WeatherDisplay:10.37,2013-07-24 17:51:00,
2013-07-24 13:56:00,63.2,52.8,29.92,NW,323,2.0,5.0,69,0.00,BKN,,0.00,WeatherDisplay:10.37,2013-07-24 17:56:00,
2013-07-24 14:01:00,63.5,51.9,29.92,NW,319,0.9,7.0,66,0.00,BKN,,0.00,WeatherDisplay:10.37,2013-07-24 18:01:00,
2013-07-24 14:06:00,63.4,51.4,29.93,NW,311,6.1,9.2,65,0.00,SCT,,0.00,WeatherDisplay:10.37,2013-07-24 18:06:00,
2013-07-24 14:11:00,63.0,51.0,29.93,WNW,296,3.4,6.9,65,0.00,SCT,,0.00,WeatherDisplay:10.37,2013-07-24 18:11:00,
2013-07-24 14:16:00,63.0,51.0,29.93,WNW,288,3.0,4.6,65,0.00,SCT,,0.00,WeatherDisplay:10.37,2013-07-24 18:16:00,
2013-07-24 14:21:00,63.2,52.5,29.93,West,272,4.7,10.4,68,0.00,SCT,,0.00,WeatherDisplay:10.37,2013-07-24 18:21:00,
2013-07-24 14:26:00,63.6,51.6,29.93,NNE,29,3.6,8.1,65,0.00,SCT,,0.00,WeatherDisplay:10.37,2013-07-24 18:26:00,
2013-07-24 14:32:00,63.6,53.2,29.93,North,355,1.5,3.5,69,0.00,SCT,,0.00,WeatherDisplay:10.37,2013-07-24 18:32:00,
2013-07-24 14:37:00,64.0,52.4,29.93,North,354,3.0,6.0,66,0.00,SCT,,0.00,WeatherDisplay:10.37,2013-07-24 18:37:00,
2013-07-24 14:42:00,64.4,52.4,29.93,WNW,299,4.5,10.4,65,0.00,SCT,,0.00,WeatherDisplay:10.37,2013-07-24 18:42:00,
2013-07-24 14:47:00,64.2,52.2,29.93,WNW,294,5.0,9.0,65,0.00,SCT,,0.00,WeatherDisplay:10.37,2013-07-24 18:47:00,
2013-07-24 14:52:00,64.2,52.2,29.93,NW,310,5.0,7.0,65,0.00,SCT,,0.00,WeatherDisplay:10.37,2013-07-24 18:52:00,
2013-07-24 14:57:00,64.8,53.6,29.94,NW,322,2.0,7.0,67,0.00,SCT,,0.00,WeatherDisplay:10.37,2013-07-24 18:57:00,
2013-07-24 15:02:00,65.2,51.8,29.93,NNE,21,3.4,4.6,62,0.00,SCT,,0.00,WeatherDisplay:10.37,2013-07-24 19:02:00,
2013-07-24 15:07:00,65.0,51.7,29.93,NNW,336,7.5,11.5,62,0.00,SCT,,0.00,WeatherDisplay:10.37,2013-07-24 19:07:00,
2013-07-24 15:12:00,64.9,52.5,29.93,North,351,5.0,8.0,64,0.00,SCT,,0.00,WeatherDisplay:10.37,2013-07-24 19:12:00,
2013-07-24 15:17:00,65.3,51.9,29.93,WNW,293,4.8,9.2,62,0.00,SCT,,0.00,WeatherDisplay:10.37,2013-07-24 19:17:00,
2013-07-24 15:22:00,65.6,53.1,29.93,NW,323,5.0,8.0,64,0.00,SCT,,0.00,WeatherDisplay:10.37,2013-07-24 19:22:00,
2013-07-24 15:27:00,65.6,52.2,29.94,NNW,345,3.0,10.0,62,0.00,SCT,,0.00,WeatherDisplay:10.37,2013-07-24 19:27:00,
2013-07-24 15:32:00,65.6,53.5,29.93,NNW,333,4.2,4.6,65,0.00,SCT,,0.00,WeatherDisplay:10.37,2013-07-24 19:32:00,
2013-07-24 15:37:00,65.1,50.9,29.93,NNE,28,6.0,9.0,60,0.00,SCT,,0.00,WeatherDisplay:10.37,2013-07-24 19:37:00,
2013-07-24 15:42:00,64.8,52.3,29.93,NW,326,4.6,8.1,64,0.00,SCT,,0.00,WeatherDisplay:10.37,2013-07-24 19:42:00,
2013-07-24 15:47:00,64.7,50.9,29.93,North,9,7.0,12.7,61,0.00,SCT,,0.00,WeatherDisplay:10.37,2013-07-24 19:47:00,
2013-07-24 15:52:00,64.4,50.2,29.93,North,11,5.0,7.0,60,0.00,SCT,,0.00,WeatherDisplay:10.37,2013-07-24 19:52:00,
2013-07-24 15:57:00,64.3,51.0,29.93,North,2,5.0,10.0,62,0.00,SCT,,0.00,WeatherDisplay:10.37,2013-07-24 19:57:00,
2013-07-24 16:02:00,64.3,51.4,29.93,North,355,5.8,9.2,63,0.00,SCT,,0.00,WeatherDisplay:10.37,2013-07-24 20:02:00,
2013-07-24 16:07:00,64.8,52.3,29.93,NNW,333,4.2,8.1,64,0.00,FEW,,0.00,WeatherDisplay:10.37,2013-07-24 20:07:00,
2013-07-24 16:12:00,65.2,51.4,29.93,NNW,342,6.0,9.2,61,0.00,FEW,,0.00,WeatherDisplay:10.37,2013-07-24 20:12:00,
2013-07-24 16:17:00,65.5,52.1,29.93,North,360,3.5,11.5,62,0.00,FEW,,0.00,WeatherDisplay:10.37,2013-07-24 20:17:00,
2013-07-24 16:22:00,65.9,52.1,29.93,NNW,340,6.0,8.0,61,0.00,FEW,,0.00,WeatherDisplay:10.37,2013-07-24 20:22:00,
2013-07-24 16:27:00,66.1,52.7,29.93,WNW,294,3.6,5.8,62,0.00,FEW,,0.00,WeatherDisplay:10.37,2013-07-24 20:27:00,
2013-07-24 16:32:00,66.5,52.6,29.93,North,5,4.4,9.2,61,0.00,FEW,,0.00,WeatherDisplay:10.37,2013-07-24 20:32:00,
2013-07-24 16:37:00,66.6,52.7,29.93,North,360,5.3,11.5,61,0.00,FEW,,0.00,WeatherDisplay:10.37,2013-07-24 20:37:00,
2013-07-24 16:42:00,66.5,51.3,29.93,NNE,15,6.2,9.2,58,0.00,,,0.00,WeatherDisplay:10.37,2013-07-24 20:42:00,
2013-07-24 16:47:00,66.3,51.5,29.93,NNW,348,3.4,8.1,59,0.00,FEW,,0.00,WeatherDisplay:10.37,2013-07-24 20:47:00,
2013-07-24 16:52:00,66.2,51.9,29.94,North,355,3.7,7.0,60,0.00,FEW,,0.00,WeatherDisplay:10.37,2013-07-24 20:52:00,
2013-07-24 16:57:00,66.5,52.2,29.93,NNW,336,4.6,10.4,60,0.00,FEW,,0.00,WeatherDisplay:10.37,2013-07-24 20:57:00,
2013-07-24 17:02:00,66.8,52.5,29.93,NNE,27,6.8,9.2,60,0.00,SCT,,0.00,WeatherDisplay:10.37,2013-07-24 21:02:00,
2013-07-24 17:07:00,66.7,52.4,29.93,NE,44,2.7,8.1,60,0.00,SCT,,0.00,WeatherDisplay:10.37,2013-07-24 21:07:00,
2013-07-24 17:12:00,66.7,51.9,29.93,North,355,5.6,9.2,59,0.00,SCT,,0.00,WeatherDisplay:10.37,2013-07-24 21:12:00,
2013-07-24 17:18:00,66.8,52.0,29.93,NNW,343,4.6,8.1,59,0.00,SCT,,0.00,WeatherDisplay:10.37,2013-07-24 21:18:00,
2013-07-24 17:22:00,66.9,52.1,29.94,NE,40,6.9,7.0,59,0.00,SCT,,0.00,WeatherDisplay:10.37,2013-07-24 21:22:00,
2013-07-24 17:28:00,66.7,51.9,29.94,NE,48,5.2,10.4,59,0.00,SCT,,0.00,WeatherDisplay:10.37,2013-07-24 21:28:00,
2013-07-24 17:33:00,66.7,52.4,29.93,NNW,336,4.9,10.4,60,0.00,SCT,,0.00,WeatherDisplay:10.37,2013-07-24 21:33:00,
2013-07-24 17:38:00,66.8,52.0,29.94,NNE,24,3.9,8.0,59,0.00,SCT,,0.00,WeatherDisplay:10.37,2013-07-24 21:38:00,
2013-07-24 17:43:00,66.7,52.4,29.94,NNW,336,1.9,5.8,60,0.00,SCT,,0.00,WeatherDisplay:10.37,2013-07-24 21:43:00,
2013-07-24 17:48:00,67.0,52.2,29.94,NNW,341,2.6,4.6,59,0.00,SCT,,0.00,WeatherDisplay:10.37,2013-07-24 21:48:00,
2013-07-24 17:53:00,67.2,51.9,29.94,NW,317,1.0,6.9,58,0.00,SCT,,0.00,WeatherDisplay:10.37,2013-07-24 21:53:00,
2013-07-24 17:58:00,67.4,52.6,29.93,NNW,346,4.4,7.0,59,0.00,SCT,,0.00,WeatherDisplay:10.37,2013-07-24 21:58:00,
2013-07-24 18:03:00,67.4,52.1,29.94,NNE,13,1.0,4.6,58,0.00,SCT,,0.00,WeatherDisplay:10.37,2013-07-24 22:03:00,
2013-07-24 18:08:00,67.4,51.6,29.94,North,360,2.6,9.2,57,0.00,SCT,,0.00,WeatherDisplay:10.37,2013-07-24 22:08:00,
2013-07-24 18:13:00,67.4,51.6,29.93,NW,323,2.8,3.5,57,0.00,SCT,,0.00,WeatherDisplay:10.37,2013-07-24 22:13:00,
2013-07-24 18:18:00,67.4,51.2,29.93,NNW,333,1.7,4.6,56,0.00,SCT,,0.00,WeatherDisplay:10.37,2013-07-24 22:18:00,
2013-07-24 18:23:00,67.4,51.6,29.93,NNE,20,4.7,8.1,57,0.00,SCT,,0.00,WeatherDisplay:10.37,2013-07-24 22:23:00,
2013-07-24 18:28:00,67.3,51.5,29.94,North,355,2.1,5.8,57,0.00,SCT,,0.00,WeatherDisplay:10.37,2013-07-24 22:28:00,
2013-07-24 18:33:00,67.3,51.6,29.93,NNE,12,2.0,5.0,57,0.00,SCT,,0.00,WeatherDisplay:10.37,2013-07-24 22:33:00,
2013-07-24 18:38:00,67.1,50.9,29.93,NNE,23,5.0,5.0,56,0.00,SCT,,0.00,WeatherDisplay:10.37,2013-07-24 22:38:00,
2013-07-24 18:43:00,67.0,52.2,29.93,NNE,32,2.0,4.0,59,0.00,SCT,,0.00,WeatherDisplay:10.37,2013-07-24 22:43:00,
2013-07-24 18:48:00,67.0,51.3,29.93,NNE,30,2.6,5.8,57,0.00,SCT,,0.00,WeatherDisplay:10.37,2013-07-24 22:48:00,
2013-07-24 18:53:00,67.0,51.3,29.94,NNE,26,0.0,1.0,57,0.00,SCT,,0.00,WeatherDisplay:10.37,2013-07-24 22:53:00,
2013-07-24 18:58:00,67.0,51.3,29.93,NNE,25,0.0,3.0,57,0.00,SCT,,0.00,WeatherDisplay:10.37,2013-07-24 22:58:00,
2013-07-24 19:03:00,67.1,51.4,29.94,NNE,14,3.5,4.6,57,0.00,SCT,,0.00,WeatherDisplay:10.37,2013-07-24 23:03:00,
2013-07-24 19:08:00,67.1,51.8,29.94,NNE,15,0.6,3.5,58,0.00,SCT,,0.00,WeatherDisplay:10.37,2013-07-24 23:08:00,
2013-07-24 19:13:00,67.1,52.3,29.94,North,7,0.0,1.0,59,0.00,SCT,,0.00,WeatherDisplay:10.37,2013-07-24 23:13:00,
2013-07-24 19:18:00,67.4,51.6,29.94,NNE,14,0.0,0.0,57,0.00,SCT,,0.00,WeatherDisplay:10.37,2013-07-24 23:18:00,
2013-07-24 19:23:00,67.6,54.2,29.94,NNE,15,0.0,0.0,62,0.00,SCT,,0.00,WeatherDisplay:10.37,2013-07-24 23:23:00,
2013-07-24 19:28:00,67.7,55.1,29.94,NNE,14,0.0,0.0,64,0.00,SCT,,0.00,WeatherDisplay:10.37,2013-07-24 23:28:00,
2013-07-24 19:33:00,67.6,54.1,29.94,NNE,15,0.0,0.0,62,0.00,SCT,,0.00,WeatherDisplay:10.37,2013-07-24 23:33:00,
2013-07-24 19:38:00,67.4,53.5,29.94,NNE,15,0.0,0.0,61,0.00,SCT,,0.00,WeatherDisplay:10.37,2013-07-24 23:38:00,
2013-07-24 19:43:00,67.3,56.4,29.94,NNE,15,0.0,0.0,68,0.00,SCT,,0.00,WeatherDisplay:10.37,2013-07-24 23:43:00,
2013-07-24 19:48:00,66.9,56.8,29.95,NNE,15,0.0,0.0,70,0.00,SCT,,0.00,WeatherDisplay:10.37,2013-07-24 23:48:00,
2013-07-24 19:53:00,66.5,56.0,29.94,NNE,15,0.0,0.0,69,0.00,SCT,,0.00,WeatherDisplay:10.37,2013-07-24 23:53:00,
2013-07-24 19:58:00,66.1,56.4,29.95,NNE,15,0.0,0.0,71,0.00,SCT,,0.00,WeatherDisplay:10.37,2013-07-24 23:58:00,
2013-07-24 20:03:00,65.4,56.1,29.95,NNE,14,0.0,0.0,72,0.00,SCT,,0.00,WeatherDisplay:10.37,2013-07-25 00:03:00,
2013-07-24 20:08:00,65.0,56.5,29.95,NNE,14,0.0,0.0,74,0.00,SCT,,0.00,WeatherDisplay:10.37,2013-07-25 00:08:00,
2013-07-24 20:13:00,64.7,56.6,29.95,NNE,15,0.0,0.0,75,0.00,SCT,,0.00,WeatherDisplay:10.37,2013-07-25 00:13:00,
2013-07-24 20:18:00,64.5,56.8,29.95,NNE,15,0.0,0.0,76,0.00,SCT,,0.00,WeatherDisplay:10.37,2013-07-25 00:18:00,
2013-07-24 20:23:00,64.2,56.8,29.95,NNE,14,0.0,0.0,77,0.00,SCT,,0.00,WeatherDisplay:10.37,2013-07-25 00:23:00,
2013-07-24 20:28:00,63.8,56.8,29.95,NNE,15,0.0,0.0,78,0.00,SCT,,0.00,WeatherDisplay:10.37,2013-07-25 00:28:00,
2013-07-24 20:33:00,62.9,55.6,29.96,NNE,15,0.0,0.0,77,0.00,SCT,,0.00,WeatherDisplay:10.37,2013-07-25 00:33:00,
2013-07-24 20:38:00,62.2,55.6,29.96,NNE,14,0.0,0.0,79,0.00,SCT,,0.00,WeatherDisplay:10.37,2013-07-25 00:38:00,
2013-07-24 20:43:00,61.5,55.3,29.96,NNE,15,0.0,0.0,80,0.00,SCT,,0.00,WeatherDisplay:10.37,2013-07-25 00:43:00,
2013-07-24 20:48:00,60.5,54.6,29.95,NNE,14,0.0,0.0,81,0.00,SCT,,0.00,WeatherDisplay:10.37,2013-07-25 00:48:00,
2013-07-24 20:53:00,59.9,54.4,29.96,NNE,15,0.0,0.0,82,0.00,SCT,,0.00,WeatherDisplay:10.37,2013-07-25 00:53:00,
2013-07-24 20:58:00,59.2,54.0,29.96,NNE,15,0.0,0.0,83,0.00,SCT,,0.00,WeatherDisplay:10.37,2013-07-25 00:58:00,
2013-07-24 21:03:00,58.9,54.1,29.96,NNE,14,0.0,0.0,84,0.00,SCT,,0.00,WeatherDisplay:10.37,2013-07-25 01:03:00,
2013-07-24 21:08:00,58.3,53.8,29.96,NNE,14,0.0,0.0,85,0.00,SCT,,0.00,WeatherDisplay:10.37,2013-07-25 01:08:00,
2013-07-24 21:13:00,57.9,53.7,29.96,NNE,15,0.0,0.0,86,0.00,FEW,,0.00,WeatherDisplay:10.37,2013-07-25 01:13:00,
2013-07-24 21:18:00,57.4,53.6,29.96,NNE,14,0.0,0.0,87,0.00,FEW,,0.00,WeatherDisplay:10.37,2013-07-25 01:18:00,
2013-07-24 21:23:00,57.0,53.2,29.96,NNE,15,0.0,0.0,87,0.00,FEW,,0.00,WeatherDisplay:10.37,2013-07-25 01:23:00,
2013-07-24 21:28:00,56.7,53.2,29.96,NNE,15,0.0,0.0,88,0.00,FEW,,0.00,WeatherDisplay:10.37,2013-07-25 01:28:00,
2013-07-24 21:33:00,56.4,52.9,29.97,NNE,14,0.0,0.0,88,0.00,FEW,,0.00,WeatherDisplay:10.37,2013-07-25 01:33:00,
2013-07-24 21:38:00,56.2,53.0,29.97,NNE,15,0.0,0.0,89,0.00,FEW,,0.00,WeatherDisplay:10.37,2013-07-25 01:38:00,
2013-07-24 21:43:00,55.9,52.7,29.97,NNE,14,0.0,0.0,89,0.00,FEW,,0.00,WeatherDisplay:10.37,2013-07-25 01:43:00,
2013-07-24 21:48:00,55.6,52.4,29.97,NNE,14,0.0,0.0,89,0.00,FEW,,0.00,WeatherDisplay:10.37,2013-07-25 01:48:00,
2013-07-24 21:53:00,55.4,52.5,29.97,NNE,15,0.0,0.0,90,0.00,FEW,,0.00,WeatherDisplay:10.37,2013-07-25 01:53:00,
2013-07-24 21:58:00,55.3,52.4,29.97,NNE,15,0.0,0.0,90,0.00,FEW,,0.00,WeatherDisplay:10.37,2013-07-25 01:58:00,
2013-07-24 22:03:00,55.3,52.4,29.97,NNE,14,0.0,0.0,90,0.00,FEW,,0.00,WeatherDisplay:10.37,2013-07-25 02:03:00,
2013-07-24 22:08:00,55.2,52.3,29.97,NNE,15,0.0,0.0,90,0.00,FEW,,0.00,WeatherDisplay:10.37,2013-07-25 02:08:00,
2013-07-24 22:13:00,55.2,52.6,29.98,NNE,14,0.0,0.0,91,0.00,FEW,,0.00,WeatherDisplay:10.37,2013-07-25 02:13:00,
2013-07-24 22:18:00,55.2,52.6,29.98,NNE,15,0.0,0.0,91,0.00,FEW,,0.00,WeatherDisplay:10.37,2013-07-25 02:18:00,
2013-07-24 22:23:00,55.2,52.6,29.98,NNE,15,0.0,0.0,91,0.00,FEW,,0.00,WeatherDisplay:10.37,2013-07-25 02:23:00,
2013-07-24 22:28:00,55.1,52.5,29.98,NNE,15,0.0,0.0,91,0.00,FEW,,0.00,WeatherDisplay:10.37,2013-07-25 02:28:00,
2013-07-24 22:33:00,55.1,52.5,29.98,NNE,15,0.0,0.0,91,0.00,FEW,,0.00,WeatherDisplay:10.37,2013-07-25 02:33:00,
2013-07-24 22:38:00,55.1,52.5,29.98,NNE,15,0.0,0.0,91,0.00,FEW,,0.00,WeatherDisplay:10.37,2013-07-25 02:38:00,
2013-07-24 22:43:00,55.0,52.4,29.98,NNE,15,0.0,0.0,91,0.00,FEW,,0.00,WeatherDisplay:10.37,2013-07-25 02:43:00,
2013-07-24 22:48:00,55.0,52.7,29.98,NNE,15,0.0,0.0,92,0.00,FEW,,0.00,WeatherDisplay:10.37,2013-07-25 02:48:00,
2013-07-24 22:53:00,54.9,52.6,29.98,NNE,14,0.0,0.0,92,0.00,FEW,,0.00,WeatherDisplay:10.37,2013-07-25 02:53:00,
2013-07-24 22:58:00,54.9,52.6,29.98,NNE,15,0.0,0.0,92,0.00,FEW,,0.00,WeatherDisplay:10.37,2013-07-25 02:58:00,
2013-07-24 23:03:00,54.7,52.4,29.98,NNE,15,0.0,0.0,92,0.00,FEW,,0.00,WeatherDisplay:10.37,2013-07-25 03:03:00,
2013-07-24 23:08:00,54.8,52.5,29.98,NNE,15,0.0,0.0,92,0.00,FEW,,0.00,WeatherDisplay:10.37,2013-07-25 03:08:00,
2013-07-24 23:14:00,54.7,52.4,29.98,NNE,15,0.0,0.0,92,0.00,FEW,,0.00,WeatherDisplay:10.37,2013-07-25 03:14:00,
2013-07-24 23:19:00,54.6,52.3,29.99,NNE,15,0.0,0.0,92,0.00,FEW,,0.00,WeatherDisplay:10.37,2013-07-25 03:19:00,
2013-07-24 23:24:00,54.6,52.3,29.99,NNE,15,0.0,0.0,92,0.00,FEW,,0.00,WeatherDisplay:10.37,2013-07-25 03:24:00,
2013-07-24 23:29:00,54.5,52.2,29.99,NNE,15,0.0,0.0,92,0.00,FEW,,0.00,WeatherDisplay:10.37,2013-07-25 03:29:00,
2013-07-24 23:34:00,54.4,52.1,30.00,NNE,14,0.0,0.0,92,0.00,FEW,,0.00,WeatherDisplay:10.37,2013-07-25 03:34:00,
2013-07-24 23:41:00,54.3,52.0,30.00,NNE,14,0.0,0.0,92,0.00,FEW,,0.00,WeatherDisplay:10.37,2013-07-25 03:41:00,
2013-07-24 23:46:00,54.3,52.0,30.00,NNE,15,0.0,0.0,92,0.00,FEW,,0.00,WeatherDisplay:10.37,2013-07-25 03:46:00,
2013-07-24 23:51:00,54.2,51.9,30.00,NNE,15,0.0,0.0,92,0.00,FEW,,0.00,WeatherDisplay:10.37,2013-07-25 03:51:00,
2013-07-24 23:56:00,54.2,51.9,30.00,NNE,15,0.0,0.0,92,0.00,FEW,,0.00,WeatherDisplay:10.37,2013-07-25 03:56:00,